createdAt,value
2023-01-22T00:02:27.904Z,96829.22
2023-01-22T00:04:56.292Z,96818.75
2023-01-22T00:07:26.455Z,96838.75
2023-01-22T00:09:56.128Z,96833.06
2023-01-22T00:12:25.394Z,96826.25
2023-01-22T00:14:54.094Z,96838.75
2023-01-22T00:17:22.934Z,96836.56
2023-01-22T00:19:51.307Z,96843.41
2023-01-22T00:22:20.479Z,96836.09
2023-01-22T00:24:49.471Z,96817.91
2023-01-22T00:27:19.855Z,96835.75
2023-01-22T00:29:49.737Z,96839.09
2023-01-22T00:32:36.697Z,96835.41
2023-01-22T00:35:05.897Z,96832.94
2023-01-22T00:37:34.476Z,96841.91
2023-01-22T00:40:02.759Z,96812.09
2023-01-22T00:42:33.353Z,96827.91
2023-01-22T00:45:01.679Z,96832.94
2023-01-22T00:47:31.613Z,96835.59
2023-01-22T00:50:00.717Z,96829.91
2023-01-22T00:52:29.637Z,96838.25
2023-01-22T00:54:58.035Z,96840.94
2023-01-22T00:57:27.534Z,96833.41
2023-01-22T00:59:57.287Z,96842.59
2023-01-22T01:02:27.085Z,96841.22
2023-01-22T01:04:56.598Z,96854.25
2023-01-22T01:07:26.549Z,96840.91
2023-01-22T01:09:55.583Z,96853.72
2023-01-22T01:12:24.337Z,96858.88
2023-01-22T01:14:56.368Z,96851.06
2023-01-22T01:17:27.413Z,96858.41
2023-01-22T01:19:55.812Z,96861.53
2023-01-22T01:22:24.853Z,96860.53
2023-01-22T01:24:53.236Z,96864.03
2023-01-22T01:27:23.136Z,96862.88
2023-01-22T01:29:52.576Z,96845.03
2023-01-22T01:32:21.425Z,96866.38
2023-01-22T01:34:51.841Z,96858.53
2023-01-22T01:37:22.126Z,96862.19
2023-01-22T01:39:52.562Z,96859.41
2023-01-22T01:42:26.696Z,96861.06
2023-01-22T01:45:21.156Z,96859.53
2023-01-22T01:47:54.612Z,96854.22
2023-01-22T01:50:27.497Z,96869.22
2023-01-22T01:52:59.370Z,96876.03
2023-01-22T01:55:31.028Z,96860.88
2023-01-22T01:58:04.123Z,96869.22
2023-01-22T02:00:37.611Z,96869.22
2023-01-22T02:03:07.552Z,96853.25
2023-01-22T02:05:39.985Z,96871.06
2023-01-22T02:08:10.290Z,96877.06
2023-01-22T02:10:40.124Z,96847.91
2023-01-22T02:13:11.669Z,96874.56
2023-01-22T02:15:42.114Z,96870.72
2023-01-22T02:18:10.476Z,96878.06
2023-01-22T02:20:41.619Z,96883.22
2023-01-22T02:23:10.048Z,96886.72
2023-01-22T02:25:39.349Z,96884.88
2023-01-22T02:28:08.796Z,96885.72
2023-01-22T02:30:37.252Z,96889.19
2023-01-22T02:33:06.090Z,96880.38
2023-01-22T02:35:34.485Z,96882.38
2023-01-22T02:38:05.538Z,96879.72
2023-01-22T02:40:36.244Z,96887.72
2023-01-22T02:43:05.647Z,96885.88
2023-01-22T02:45:35.778Z,96885.22
2023-01-22T02:48:04.837Z,96884.69
2023-01-22T02:50:36.207Z,96884.88
2023-01-22T02:53:06.464Z,96889.72
2023-01-22T02:55:35.319Z,96878.53
2023-01-22T02:58:04.414Z,96881.19
2023-01-22T03:00:34.047Z,96883.22
2023-01-22T03:03:08.165Z,96877.34
2023-01-22T03:05:36.526Z,96878.88
2023-01-22T03:08:08.160Z,96873.19
2023-01-22T03:10:36.488Z,96881.03
2023-01-22T03:13:23.145Z,96883.69
2023-01-22T03:16:11.481Z,96887.00
2023-01-22T03:18:59.022Z,96883.03
2023-01-22T03:21:27.856Z,96881.84
2023-01-22T03:23:57.668Z,96890.81
2023-01-22T03:26:30.123Z,96869.69
2023-01-22T03:28:58.770Z,96896.81
2023-01-22T03:31:28.096Z,96893.81
2023-01-22T03:33:56.581Z,96890.16
2023-01-22T03:36:26.685Z,96863.47
2023-01-22T03:39:01.572Z,96887.44
2023-01-22T03:41:31.123Z,96884.13
2023-01-22T03:44:01.375Z,96890.97
2023-01-22T03:46:35.971Z,96870.50
2023-01-22T03:49:05.635Z,96890.16
2023-01-22T03:51:34.634Z,96894.94
2023-01-22T03:54:06.618Z,96881.09
2023-01-22T03:56:34.962Z,96887.13
2023-01-22T03:59:10.092Z,96884.25
2023-01-22T04:01:38.946Z,96898.75
2023-01-22T04:04:07.836Z,96903.56
2023-01-22T04:06:36.659Z,96900.69
2023-01-22T04:09:06.836Z,96908.03
2023-01-22T04:11:41.364Z,96900.53
2023-01-22T04:14:11.297Z,96914.69
2023-01-22T04:16:43.692Z,96910.06
2023-01-22T04:19:31.348Z,96901.38
2023-01-22T04:22:05.253Z,96910.72
2023-01-22T04:24:38.167Z,96909.72
2023-01-22T04:27:07.424Z,96920.88
2023-01-22T04:29:37.350Z,96921.50
2023-01-22T04:32:08.940Z,96917.84
2023-01-22T04:34:53.684Z,96912.69
2023-01-22T04:37:46.788Z,96925.00
2023-01-22T04:40:17.452Z,96923.00
2023-01-22T04:42:47.946Z,96926.00
2023-01-22T04:45:16.924Z,96919.97
2023-01-22T04:47:49.987Z,96926.28
2023-01-22T04:50:23.235Z,96925.00
2023-01-22T04:52:54.165Z,96940.97
2023-01-22T04:55:25.522Z,96916.63
2023-01-22T04:58:03.559Z,96926.97
2023-01-22T05:00:32.416Z,96927.28
2023-01-22T05:03:05.797Z,96933.97
2023-01-22T05:05:34.819Z,96935.63
2023-01-22T05:08:04.904Z,96945.28
2023-01-22T05:10:37.880Z,96954.09
2023-01-22T05:13:08.750Z,96946.50
2023-01-22T05:15:39.064Z,96954.03
2023-01-22T05:18:14.072Z,96954.88
2023-01-22T05:20:52.926Z,96952.22
2023-01-22T05:23:24.597Z,96956.53
2023-01-22T05:25:54.338Z,96952.53
2023-01-22T05:28:37.512Z,96950.91
2023-01-22T05:31:41.548Z,96955.94
2023-01-22T05:34:22.970Z,96938.06
2023-01-22T05:36:52.588Z,96965.22
2023-01-22T05:39:24.238Z,96960.59
2023-01-22T05:41:56.662Z,96967.25
2023-01-22T05:44:26.188Z,96940.94
2023-01-22T05:46:57.617Z,96957.78
2023-01-22T05:49:26.435Z,96966.94
2023-01-22T05:51:57.693Z,96965.94
2023-01-22T05:54:26.280Z,96973.25
2023-01-22T05:56:56.192Z,96961.09
2023-01-22T05:59:27.300Z,96972.75
2023-01-22T06:02:00.610Z,96970.72
2023-01-22T06:04:30.121Z,96976.38
2023-01-22T06:07:00.521Z,96967.47
2023-01-22T06:09:30.295Z,96983.97
2023-01-22T06:12:00.055Z,96986.47
2023-01-22T06:14:30.043Z,96988.50
2023-01-22T06:17:02.589Z,96979.50
2023-01-22T06:19:36.128Z,96980.28
2023-01-22T06:22:06.897Z,96980.78
2023-01-22T06:24:42.041Z,96983.78
2023-01-22T06:27:12.719Z,96981.09
2023-01-22T06:29:51.344Z,96981.94
2023-01-22T06:32:20.340Z,96982.94
2023-01-22T06:34:49.061Z,96983.66
2023-01-22T06:37:19.130Z,96982.53
2023-01-22T06:39:48.110Z,96979.06
2023-01-22T06:42:25.470Z,96980.56
2023-01-22T06:44:54.642Z,96991.75
2023-01-22T06:47:26.194Z,96993.41
2023-01-22T06:49:55.440Z,96992.41
2023-01-22T06:52:23.791Z,96997.72
2023-01-22T06:54:52.640Z,96995.91
2023-01-22T06:57:21.052Z,97000.41
2023-01-22T06:59:50.972Z,97004.88
2023-01-22T07:02:20.550Z,97008.22
2023-01-22T07:04:49.187Z,97013.53
2023-01-22T07:07:18.135Z,96985.84
2023-01-22T07:09:46.501Z,97018.56
2023-01-22T07:12:15.152Z,97023.06
2023-01-22T07:14:43.525Z,97021.91
2023-01-22T07:17:14.333Z,97024.56
2023-01-22T07:19:43.323Z,97018.22
2023-01-22T07:22:12.191Z,97027.22
2023-01-22T07:24:40.713Z,97030.56
2023-01-22T07:27:09.366Z,97035.88
2023-01-22T07:29:37.758Z,97037.72
2023-01-22T07:32:07.412Z,97028.22
2023-01-22T07:34:37.418Z,97041.41
2023-01-22T07:37:06.304Z,97046.41
2023-01-22T07:39:35.140Z,97048.09
2023-01-22T07:42:03.445Z,97053.09
2023-01-22T07:44:32.354Z,97041.78
2023-01-22T07:47:00.731Z,97053.63
2023-01-22T07:49:30.039Z,97055.28
2023-01-22T07:51:59.717Z,97050.97
2023-01-22T07:54:28.888Z,97051.63
2023-01-22T07:56:57.305Z,97056.28
2023-01-22T07:59:26.138Z,97061.63
2023-01-22T08:01:55.515Z,97068.59
2023-01-22T08:04:24.707Z,97057.75
2023-01-22T08:06:53.978Z,97071.47
2023-01-22T08:09:25.871Z,97074.97
2023-01-22T08:11:55.317Z,97069.78
2023-01-22T08:14:23.700Z,97077.97
2023-01-22T08:16:53.096Z,97071.50
2023-01-22T08:19:21.499Z,97081.16
2023-01-22T08:21:49.877Z,97074.00
2023-01-22T08:24:19.178Z,97080.00
2023-01-22T08:26:49.061Z,97083.50
2023-01-22T08:29:17.904Z,97088.31
2023-01-22T08:31:46.683Z,97094.47
2023-01-22T08:34:18.016Z,97087.00
2023-01-22T08:36:46.508Z,97082.19
2023-01-22T08:39:15.285Z,97072.00
2023-01-22T08:41:43.764Z,97098.53
2023-01-22T08:44:15.675Z,97105.34
2023-01-22T08:46:43.973Z,97113.00
2023-01-22T08:49:13.268Z,97124.69
2023-01-22T08:51:41.666Z,97121.41
2023-01-22T08:54:10.998Z,97126.94
2023-01-22T08:56:39.937Z,97129.63
2023-01-22T08:59:08.285Z,97134.81
2023-01-22T09:01:38.442Z,97129.53
2023-01-22T09:04:07.448Z,97133.88
2023-01-22T09:06:37.128Z,97146.22
2023-01-22T09:09:06.455Z,97143.91
2023-01-22T09:11:35.900Z,97146.59
2023-01-22T09:14:05.487Z,97150.41
2023-01-22T09:16:34.172Z,97150.41
2023-01-22T09:19:04.279Z,97156.28
2023-01-22T09:21:34.423Z,97146.59
2023-01-22T09:24:03.114Z,97152.25
2023-01-22T09:26:33.164Z,97141.56
2023-01-22T09:29:04.158Z,97162.28
2023-01-22T09:31:34.757Z,97159.13
2023-01-22T09:34:05.220Z,97148.97
2023-01-22T09:36:33.655Z,97145.16
2023-01-22T09:39:03.048Z,97139.66
2023-01-22T09:41:35.477Z,97148.66
2023-01-22T09:44:07.547Z,97141.13
2023-01-22T09:46:41.560Z,97145.81
2023-01-22T09:49:16.300Z,97154.00
2023-01-22T09:51:48.006Z,97159.16
2023-01-22T09:54:17.952Z,97157.16
2023-01-22T09:56:49.962Z,97164.50
2023-01-22T09:59:21.133Z,97154.63
2023-01-22T10:01:54.027Z,97161.97
2023-01-22T10:04:34.512Z,97162.66
2023-01-22T10:07:05.819Z,97152.63
2023-01-22T10:09:35.632Z,97163.50
2023-01-22T10:12:13.755Z,97161.72
2023-01-22T10:14:43.831Z,97150.84
2023-01-22T10:17:20.815Z,97151.84
2023-01-22T10:19:54.997Z,97162.38
2023-01-22T10:22:25.875Z,97162.19
2023-01-22T10:24:56.150Z,97163.69
2023-01-22T10:27:34.064Z,97166.88
2023-01-22T10:30:05.453Z,97163.03
2023-01-22T10:32:33.974Z,97155.69
2023-01-22T10:35:06.964Z,97157.88
2023-01-22T10:37:45.147Z,97155.53
2023-01-22T10:40:31.226Z,97148.19
2023-01-22T10:43:05.515Z,97155.19
2023-01-22T10:45:33.922Z,97158.69
2023-01-22T10:48:12.217Z,97149.03
2023-01-22T10:50:43.297Z,97154.53
2023-01-22T10:53:20.686Z,97160.88
2023-01-22T10:55:59.072Z,97156.06
2023-01-22T10:58:32.099Z,97158.72
2023-01-22T11:01:03.930Z,97158.19
2023-01-22T11:03:36.045Z,97162.38
2023-01-22T11:06:15.238Z,97161.88
2023-01-22T11:08:48.845Z,97141.69
2023-01-22T11:11:20.917Z,97155.03
2023-01-22T11:13:55.957Z,97145.50
2023-01-22T11:16:25.998Z,97146.84
2023-01-22T11:18:59.643Z,97135.66
2023-01-22T11:21:33.698Z,97145.50
2023-01-22T11:24:06.217Z,97142.00
2023-01-22T11:26:48.947Z,97136.97
2023-01-22T11:29:30.041Z,97135.66
2023-01-22T11:32:19.305Z,97127.94
2023-01-22T11:34:58.923Z,97129.28
2023-01-22T11:37:42.437Z,97121.91
2023-01-22T11:40:27.077Z,97124.09
2023-01-22T11:43:18.963Z,97123.72
2023-01-22T11:46:22.375Z,97123.25
2023-01-22T11:49:03.474Z,97122.59
2023-01-22T11:51:36.749Z,97126.09
2023-01-22T11:54:25.387Z,97133.25
2023-01-22T11:57:09.745Z,97129.22
2023-01-22T11:59:53.420Z,97129.69
2023-01-22T12:02:43.911Z,97131.16
2023-01-22T12:05:29.410Z,97127.47
2023-01-22T12:08:08.982Z,97129.56
2023-01-22T12:11:00.036Z,97125.03
2023-01-22T12:13:48.487Z,97123.16
2023-01-22T12:16:31.011Z,97117.78
2023-01-22T12:19:32.691Z,97133.78
2023-01-22T12:22:09.730Z,97125.06
2023-01-22T12:24:44.500Z,97132.88
2023-01-22T12:27:19.531Z,97140.09
2023-01-22T12:29:58.585Z,97141.75
2023-01-22T12:32:29.951Z,97138.41
2023-01-22T12:35:05.382Z,97134.78
2023-01-22T12:37:42.717Z,97131.78
2023-01-22T12:41:00.612Z,97134.25
2023-01-22T12:43:36.488Z,97134.78
2023-01-22T12:46:18.787Z,97129.09
2023-01-22T12:48:55.977Z,97124.97
2023-01-22T12:51:29.613Z,97132.81
2023-01-22T12:54:09.894Z,97134.66
2023-01-22T12:56:39.091Z,97141.03
2023-01-22T12:59:32.556Z,97131.66
2023-01-22T13:02:02.386Z,97134.13
2023-01-22T13:04:32.602Z,97135.63
2023-01-22T13:07:06.504Z,97136.25
2023-01-22T13:09:38.431Z,97132.09
2023-01-22T13:12:10.455Z,97139.00
2023-01-22T13:14:43.418Z,97139.56
2023-01-22T13:17:19.752Z,97137.13
2023-01-22T13:19:50.517Z,97141.09
2023-01-22T13:22:23.517Z,97143.25
2023-01-22T13:24:53.993Z,97134.53
2023-01-22T13:27:25.879Z,97153.66
2023-01-22T13:30:07.670Z,97150.47
2023-01-22T13:32:36.688Z,97147.41
2023-01-22T13:35:06.825Z,97156.78
2023-01-22T13:37:35.831Z,97151.03
2023-01-22T13:40:15.746Z,97157.22
2023-01-22T13:42:47.073Z,97167.69
2023-01-22T13:45:22.836Z,97161.38
2023-01-22T13:47:55.417Z,97163.47
2023-01-22T13:50:26.334Z,97159.66
2023-01-22T13:52:55.127Z,97161.56
2023-01-22T13:55:27.192Z,97171.25
2023-01-22T13:57:58.469Z,97170.09
2023-01-22T14:00:30.697Z,97167.66
2023-01-22T14:02:59.947Z,97166.03
2023-01-22T14:05:30.708Z,97167.09
2023-01-22T14:08:08.103Z,97180.50
2023-01-22T14:10:37.096Z,97169.50
2023-01-22T14:13:07.573Z,97177.53
2023-01-22T14:15:38.297Z,97169.88
2023-01-22T14:18:09.819Z,97185.59
2023-01-22T14:20:41.165Z,97167.41
2023-01-22T14:23:09.735Z,97184.44
2023-01-22T14:25:39.853Z,97187.97
2023-01-22T14:28:08.558Z,97184.63
2023-01-22T14:30:39.414Z,97190.66
2023-01-22T14:33:07.795Z,97189.03
2023-01-22T14:35:37.165Z,97191.25
2023-01-22T14:38:05.520Z,97188.56
2023-01-22T14:40:34.490Z,97202.75
2023-01-22T14:43:04.024Z,97194.75
2023-01-22T14:45:32.457Z,97197.59
2023-01-22T14:48:04.029Z,97203.28
2023-01-22T14:50:32.832Z,97208.47
2023-01-22T14:53:01.253Z,97213.13
2023-01-22T14:55:30.401Z,97212.44
2023-01-22T14:57:59.917Z,97195.94
2023-01-22T15:00:29.446Z,97215.97
2023-01-22T15:02:59.105Z,97220.81
2023-01-22T15:05:29.633Z,97225.31
2023-01-22T15:07:59.926Z,97232.81
2023-01-22T15:10:28.624Z,97233.81
2023-01-22T15:12:57.792Z,97230.94
2023-01-22T15:15:28.410Z,97234.25
2023-01-22T15:17:58.924Z,97234.91
2023-01-22T15:20:28.932Z,97241.41
2023-01-22T15:22:57.772Z,97237.28
2023-01-22T15:25:27.270Z,97212.53
2023-01-22T15:27:56.656Z,97240.09
2023-01-22T15:30:25.449Z,97243.63
2023-01-22T15:32:53.993Z,97246.44
2023-01-22T15:35:22.839Z,97246.97
2023-01-22T15:37:53.089Z,97245.13
2023-01-22T15:40:22.378Z,97252.13
2023-01-22T15:42:51.100Z,97264.47
2023-01-22T15:45:19.443Z,97236.53
2023-01-22T15:47:48.209Z,97260.41
2023-01-22T15:50:20.779Z,97254.59
2023-01-22T15:52:55.726Z,97263.41
2023-01-22T15:55:24.374Z,97266.09
2023-01-22T15:57:53.644Z,97262.88
2023-01-22T16:00:22.678Z,97260.22
2023-01-22T16:02:51.998Z,97235.28
2023-01-22T16:05:21.302Z,97263.69
2023-01-22T16:07:52.431Z,97263.19
2023-01-22T16:10:22.334Z,97267.72
2023-01-22T16:12:51.441Z,97273.41
2023-01-22T16:15:19.803Z,97265.34
2023-01-22T16:17:48.562Z,97258.00
2023-01-22T16:20:17.855Z,97270.38
2023-01-22T16:22:48.052Z,97273.41
2023-01-22T16:25:16.471Z,97271.41
2023-01-22T16:27:46.202Z,97277.41
2023-01-22T16:30:16.531Z,97278.25
2023-01-22T16:32:46.121Z,97253.19
2023-01-22T16:35:14.748Z,97280.78
2023-01-22T16:37:45.081Z,97277.41
2023-01-22T16:40:14.645Z,97286.91
2023-01-22T16:42:59.400Z,97277.75
2023-01-22T16:45:27.820Z,97297.44
2023-01-22T16:47:56.720Z,97295.09
2023-01-22T16:50:25.634Z,97300.56
2023-01-22T16:52:53.992Z,97302.03
2023-01-22T16:55:23.081Z,97310.53
2023-01-22T16:57:53.489Z,97308.69
2023-01-22T17:00:22.315Z,97311.06
2023-01-22T17:02:50.745Z,97310.75
2023-01-22T17:05:20.185Z,97310.06
2023-01-22T17:07:49.145Z,97309.19
2023-01-22T17:10:18.613Z,97305.84
2023-01-22T17:12:47.371Z,97309.72
2023-01-22T17:15:18.897Z,97303.22
2023-01-22T17:17:48.553Z,97319.97
2023-01-22T17:20:17.896Z,97321.63
2023-01-22T17:22:46.595Z,97316.59
2023-01-22T17:25:16.129Z,97323.25
2023-01-22T17:27:44.492Z,97319.25
2023-01-22T17:30:14.653Z,97321.72
2023-01-22T17:32:46.111Z,97327.38
2023-01-22T17:35:16.392Z,97324.88
2023-01-22T17:37:45.532Z,97327.53
2023-01-22T17:40:14.728Z,97331.72
2023-01-22T17:42:43.135Z,97334.25
2023-01-22T17:45:12.572Z,97339.75
2023-01-22T17:47:45.321Z,97335.56
2023-01-22T17:50:14.628Z,97335.91
2023-01-22T17:52:42.942Z,97327.69
2023-01-22T17:55:12.397Z,97335.72
2023-01-22T17:57:41.506Z,97337.88
2023-01-22T18:00:12.178Z,97317.97
2023-01-22T18:02:40.517Z,97346.19
2023-01-22T18:05:11.436Z,97336.50
2023-01-22T18:07:39.854Z,97334.94
2023-01-22T18:10:10.245Z,97337.31
2023-01-22T18:12:38.589Z,97332.94
2023-01-22T18:15:08.671Z,97351.97
2023-01-22T18:17:36.996Z,97351.13
2023-01-22T18:20:06.763Z,97356.47
2023-01-22T18:22:37.267Z,97352.66
2023-01-22T18:25:06.602Z,97355.78
2023-01-22T18:27:35.440Z,97357.63
2023-01-22T18:30:04.336Z,97343.25
2023-01-22T18:32:35.715Z,97359.84
2023-01-22T18:35:05.710Z,97364.31
2023-01-22T18:37:34.048Z,97356.47
2023-01-22T18:40:04.043Z,97363.91
2023-01-22T18:42:32.341Z,97360.41
2023-01-22T18:45:01.103Z,97365.06
2023-01-22T18:47:29.850Z,97366.00
2023-01-22T18:49:58.237Z,97380.81
2023-01-22T18:52:27.562Z,97373.09
2023-01-22T18:54:55.956Z,97375.72
2023-01-22T18:57:26.180Z,97384.19
2023-01-22T18:59:54.667Z,97378.84
2023-01-22T19:02:23.858Z,97376.34
2023-01-22T19:04:53.507Z,97382.69
2023-01-22T19:07:22.650Z,97380.47
2023-01-22T19:09:52.068Z,97374.84
2023-01-22T19:12:21.635Z,97374.50
2023-01-22T19:14:51.889Z,97386.03
2023-01-22T19:17:20.941Z,97387.50
2023-01-22T19:19:49.381Z,97388.81
2023-01-22T19:22:17.825Z,97370.56
2023-01-22T19:24:46.176Z,97385.81
2023-01-22T19:27:14.553Z,97391.84
2023-01-22T19:29:43.255Z,97386.16
2023-01-22T19:32:16.416Z,97393.81
2023-01-22T19:34:44.783Z,97404.44
2023-01-22T19:37:13.113Z,97399.22
2023-01-22T19:39:41.790Z,97404.88
2023-01-22T19:42:10.221Z,97385.41
2023-01-22T19:44:40.237Z,97410.97
2023-01-22T19:47:09.025Z,97408.31
2023-01-22T19:49:39.055Z,97424.31
2023-01-22T19:52:07.967Z,97375.25
2023-01-22T19:54:38.184Z,97426.47
2023-01-22T19:57:06.571Z,97428.97
2023-01-22T19:59:35.376Z,97431.81
2023-01-22T20:02:03.864Z,97435.59
2023-01-22T20:04:34.377Z,97419.97
2023-01-22T20:07:06.227Z,97421.19
2023-01-22T20:09:35.989Z,97437.94
2023-01-22T20:12:06.564Z,97446.41
2023-01-22T20:14:39.011Z,97456.22
2023-01-22T20:17:07.418Z,97457.53
2023-01-22T20:19:38.563Z,97459.13
2023-01-22T20:22:10.701Z,97437.25
2023-01-22T20:24:41.028Z,97468.00
2023-01-22T20:27:10.592Z,97456.81
2023-01-22T20:29:39.791Z,97472.13
2023-01-22T20:32:08.634Z,97471.53
2023-01-22T20:34:37.514Z,97477.25
2023-01-22T20:37:06.248Z,97475.44
2023-01-22T20:39:36.447Z,97483.25
2023-01-22T20:42:05.428Z,97454.75
2023-01-22T20:44:35.508Z,97474.19
2023-01-22T20:47:04.412Z,97485.63
2023-01-22T20:49:33.619Z,97492.19
2023-01-22T20:52:02.653Z,97484.56
2023-01-22T20:54:32.141Z,97486.00
2023-01-22T20:57:02.252Z,97465.75
2023-01-22T20:59:30.608Z,97453.16
2023-01-22T21:01:59.513Z,97482.91
2023-01-22T21:04:27.896Z,97471.91
2023-01-22T21:06:56.526Z,97473.13
2023-01-22T21:09:28.284Z,97460.09
2023-01-22T21:11:56.967Z,97479.88
2023-01-22T21:14:26.924Z,97457.03
2023-01-22T21:16:56.252Z,97436.81
2023-01-22T21:19:26.030Z,97470.16
2023-01-22T21:21:57.281Z,97468.31
2023-01-22T21:24:25.774Z,97456.75
2023-01-22T21:26:55.519Z,97488.50
2023-01-22T21:29:26.081Z,97466.56
2023-01-22T21:31:54.928Z,97484.00
2023-01-22T21:34:26.229Z,97491.00
2023-01-22T21:36:58.708Z,97485.00
2023-01-22T21:39:30.440Z,97484.84
2023-01-22T21:42:17.122Z,97498.19
2023-01-22T21:45:05.095Z,97485.31
2023-01-22T21:47:33.441Z,97491.09
2023-01-22T21:50:01.914Z,97495.16
2023-01-22T21:52:31.094Z,97495.16
2023-01-22T21:55:00.552Z,97487.88
2023-01-22T21:57:29.338Z,97485.22
2023-01-22T21:59:59.318Z,97497.13
2023-01-22T22:02:28.232Z,97498.44
2023-01-22T22:04:56.757Z,97487.59
2023-01-22T22:07:26.646Z,97478.59
2023-01-22T22:09:55.050Z,97480.81
2023-01-22T22:12:25.514Z,97482.50
2023-01-22T22:14:54.024Z,97487.59
2023-01-22T22:17:25.278Z,97490.88
2023-01-22T22:19:54.680Z,97415.50
2023-01-22T22:22:23.096Z,97504.66
2023-01-22T22:24:54.268Z,97501.47
2023-01-22T22:27:22.912Z,97493.16
2023-01-22T22:29:53.720Z,97490.03
2023-01-22T22:32:22.594Z,97490.88
2023-01-22T22:34:52.566Z,97485.53
2023-01-22T22:37:21.395Z,97488.97
2023-01-22T22:39:49.731Z,97476.56
2023-01-22T22:42:19.046Z,97471.41
2023-01-22T22:44:47.471Z,97482.97
2023-01-22T22:47:16.473Z,97486.16
2023-01-22T22:49:44.956Z,97485.31
2023-01-22T22:52:14.746Z,97478.16
2023-01-22T22:54:45.118Z,97482.03
2023-01-22T22:57:16.222Z,97494.22
2023-01-22T22:59:44.598Z,97465.28
2023-01-22T23:02:12.992Z,97498.06
2023-01-22T23:04:42.725Z,97505.81
2023-01-22T23:07:11.151Z,97484.41
2023-01-22T23:09:42.623Z,97495.59
2023-01-22T23:12:11.412Z,97515.84
2023-01-22T23:14:39.742Z,97507.69
2023-01-22T23:17:09.419Z,97514.69
2023-01-22T23:19:37.786Z,97507.84
2023-01-22T23:22:07.627Z,97510.59
2023-01-22T23:24:36.043Z,97512.28
2023-01-22T23:27:06.866Z,97509.31
2023-01-22T23:29:35.273Z,97512.34
2023-01-22T23:32:05.358Z,97527.06
2023-01-22T23:34:33.765Z,97513.34
2023-01-22T23:37:03.082Z,97519.75
2023-01-22T23:39:33.377Z,97522.13
2023-01-22T23:42:01.817Z,97531.25
2023-01-22T23:44:32.560Z,97531.41
2023-01-22T23:47:00.905Z,97535.47
2023-01-22T23:49:30.708Z,97527.47
2023-01-22T23:51:59.075Z,97540.09
2023-01-22T23:54:28.306Z,97541.06
2023-01-22T23:56:56.682Z,97532.09
2023-01-22T23:59:27.234Z,97534.16
